createdAt,value
2023-09-27T00:02:07.396Z,101863.47
2023-09-27T00:04:37.370Z,101850.19
2023-09-27T00:07:07.699Z,101867.25
2023-09-27T00:09:39.722Z,101880.31
2023-09-27T00:12:10.752Z,101873.28
2023-09-27T00:14:40.538Z,101876.75
2023-09-27T00:17:11.744Z,101872.09
2023-09-27T00:19:42.789Z,101833.88
2023-09-27T00:22:12.673Z,101863.41
2023-09-27T00:24:42.365Z,101859.97
2023-09-27T00:27:13.216Z,101864.13
2023-09-27T00:29:42.946Z,101866.94
2023-09-27T00:32:15.662Z,101859.88
2023-09-27T00:34:45.719Z,101857.47
2023-09-27T00:37:16.024Z,101842.13
2023-09-27T00:39:45.872Z,101829.31
2023-09-27T00:42:15.614Z,101848.09
2023-09-27T00:44:46.068Z,101868.03
2023-09-27T00:47:17.537Z,101859.66
2023-09-27T00:49:47.420Z,101856.97
2023-09-27T00:52:17.353Z,101857.34
2023-09-27T00:54:47.655Z,101853.97
2023-09-27T00:57:17.815Z,101853.38
2023-09-27T00:59:48.894Z,101856.66
2023-09-27T01:02:19.736Z,101849.97
2023-09-27T01:04:50.649Z,101849.50
2023-09-27T01:07:20.786Z,101856.59
2023-09-27T01:09:51.195Z,101865.81
2023-09-27T01:12:22.134Z,101857.66
2023-09-27T01:14:52.400Z,101852.63
2023-09-27T01:17:23.350Z,101855.31
2023-09-27T01:19:53.098Z,101857.69
2023-09-27T01:22:22.830Z,101848.22
2023-09-27T01:24:57.347Z,101858.56
2023-09-27T01:27:27.626Z,101863.91
2023-09-27T01:29:57.252Z,101860.03
2023-09-27T01:32:30.444Z,101858.94
2023-09-27T01:35:00.371Z,101852.28
2023-09-27T01:37:30.799Z,101838.13
2023-09-27T01:40:02.474Z,101848.34
2023-09-27T01:42:35.868Z,101856.41
2023-09-27T01:45:06.493Z,101860.41
2023-09-27T01:47:38.302Z,101860.91
2023-09-27T01:50:10.311Z,101850.66
2023-09-27T01:52:40.021Z,101871.84
2023-09-27T01:55:11.316Z,101873.72
2023-09-27T01:57:40.777Z,101876.88
2023-09-27T02:00:12.601Z,101875.44
2023-09-27T02:02:42.247Z,101872.00
2023-09-27T02:05:13.152Z,101873.88
2023-09-27T02:07:44.639Z,101879.41
2023-09-27T02:10:16.120Z,101888.13
2023-09-27T02:12:46.314Z,101855.81
2023-09-27T02:15:17.224Z,101876.94
2023-09-27T02:17:47.214Z,101884.97
2023-09-27T02:20:19.559Z,101876.34
2023-09-27T02:22:51.591Z,101882.56
2023-09-27T02:25:23.181Z,101881.91
2023-09-27T02:27:52.635Z,101862.91
2023-09-27T02:30:22.310Z,101854.56
2023-09-27T02:32:52.335Z,101888.22
2023-09-27T02:35:22.582Z,101868.47
2023-09-27T02:37:52.661Z,101862.53
2023-09-27T02:40:23.571Z,101863.22
2023-09-27T02:42:53.365Z,101861.38
2023-09-27T02:45:23.772Z,101856.97
2023-09-27T02:47:54.324Z,101858.13
2023-09-27T02:50:25.152Z,101855.94
2023-09-27T02:52:55.325Z,101872.16
2023-09-27T02:55:27.366Z,101886.50
2023-09-27T02:57:57.490Z,101903.63
2023-09-27T03:00:28.000Z,101885.78
2023-09-27T03:02:59.265Z,101896.34
2023-09-27T03:05:29.884Z,101890.03
2023-09-27T03:08:00.780Z,101889.38
2023-09-27T03:10:32.989Z,101863.75
2023-09-27T03:13:05.822Z,101885.38
2023-09-27T03:15:35.765Z,101869.47
2023-09-27T03:18:07.056Z,101865.38
2023-09-27T03:20:37.758Z,101869.59
2023-09-27T03:23:12.882Z,101876.75
2023-09-27T03:25:43.842Z,101879.63
2023-09-27T03:28:14.106Z,101867.22
2023-09-27T03:30:44.528Z,101865.53
2023-09-27T03:33:14.336Z,101871.78
2023-09-27T03:35:47.483Z,101876.00
2023-09-27T03:38:17.794Z,101884.09
2023-09-27T03:40:49.613Z,101895.28
2023-09-27T03:43:20.343Z,101894.69
2023-09-27T03:45:51.022Z,101883.25
2023-09-27T03:48:20.971Z,101900.91
2023-09-27T03:50:50.617Z,101900.91
2023-09-27T03:53:21.942Z,101717.34
2023-09-27T03:55:52.706Z,101888.75
2023-09-27T03:58:22.555Z,101899.50
2023-09-27T04:00:51.496Z,101902.38
2023-09-27T04:03:21.548Z,101894.16
2023-09-27T04:05:50.749Z,101870.25
2023-09-27T04:08:19.655Z,101872.00
2023-09-27T04:10:48.618Z,101890.03
2023-09-27T04:13:19.052Z,101888.19
2023-09-27T04:15:51.075Z,101870.97
2023-09-27T04:18:19.974Z,101820.72
2023-09-27T04:20:49.123Z,101883.56
2023-09-27T04:23:19.226Z,101888.25
2023-09-27T04:25:49.170Z,101873.53
2023-09-27T04:28:22.651Z,101868.31
2023-09-27T04:30:53.337Z,101882.81
2023-09-27T04:33:23.412Z,101875.25
2023-09-27T04:35:55.590Z,101860.28
2023-09-27T04:38:25.941Z,101867.63
2023-09-27T04:40:56.921Z,101872.56
2023-09-27T04:43:27.966Z,101869.00
2023-09-27T04:45:57.986Z,101854.94
2023-09-27T04:48:27.757Z,101860.13
2023-09-27T04:50:59.029Z,101857.81
2023-09-27T04:53:28.500Z,101853.31
2023-09-27T04:55:58.091Z,101863.44
2023-09-27T04:58:28.881Z,101867.16
2023-09-27T05:01:03.348Z,101851.91
2023-09-27T05:03:32.859Z,101863.91
2023-09-27T05:06:02.715Z,101854.41
2023-09-27T05:08:36.034Z,101840.94
2023-09-27T05:11:05.729Z,101844.97
2023-09-27T05:13:37.065Z,101852.09
2023-09-27T05:16:08.579Z,101836.69
2023-09-27T05:18:37.853Z,101833.91
2023-09-27T05:21:07.475Z,101814.53
2023-09-27T05:23:37.007Z,101827.53
2023-09-27T05:26:06.204Z,101862.00
2023-09-27T05:28:38.822Z,101854.13
2023-09-27T05:31:08.368Z,101858.47
2023-09-27T05:33:37.730Z,101877.66
2023-09-27T05:36:07.746Z,101812.41
2023-09-27T05:38:39.975Z,101842.44
2023-09-27T05:41:08.914Z,101826.28
2023-09-27T05:43:39.515Z,101837.97
2023-09-27T05:46:09.160Z,101846.94
2023-09-27T05:48:38.289Z,101835.53
2023-09-27T05:51:08.945Z,101830.91
2023-09-27T05:53:38.641Z,101845.66
2023-09-27T05:56:09.057Z,101852.63
2023-09-27T05:58:39.662Z,101860.03
2023-09-27T06:01:09.166Z,101853.31
2023-09-27T06:03:38.947Z,101820.56
2023-09-27T06:06:08.625Z,101861.59
2023-09-27T06:08:38.069Z,101856.75
2023-09-27T06:11:08.259Z,101853.81
2023-09-27T06:13:38.941Z,101858.78
2023-09-27T06:16:18.248Z,101855.59
2023-09-27T06:18:48.242Z,101814.03
2023-09-27T06:21:20.084Z,101848.16
2023-09-27T06:23:49.101Z,101862.34
2023-09-27T06:26:19.506Z,101859.78
2023-09-27T06:28:49.883Z,101854.63
2023-09-27T06:31:20.787Z,101835.34
2023-09-27T06:33:50.964Z,101685.84
2023-09-27T06:36:22.741Z,101857.84
2023-09-27T06:38:52.664Z,101847.72
2023-09-27T06:41:22.736Z,101832.75
2023-09-27T06:43:52.800Z,101834.06
2023-09-27T06:46:25.845Z,101829.09
2023-09-27T06:48:57.559Z,101838.19
2023-09-27T06:51:27.932Z,101838.66
2023-09-27T06:53:57.345Z,101841.56
2023-09-27T06:56:27.157Z,101841.56
2023-09-27T06:58:57.641Z,101854.75
2023-09-27T07:01:33.534Z,101870.25
2023-09-27T07:04:05.383Z,101875.50
2023-09-27T07:06:35.179Z,101898.38
2023-09-27T07:09:07.785Z,101884.16
2023-09-27T07:11:37.536Z,101905.91
2023-09-27T07:14:07.457Z,101773.16
2023-09-27T07:16:50.484Z,101766.88
2023-09-27T07:19:32.711Z,101922.31
2023-09-27T07:22:04.612Z,101903.22
2023-09-27T07:24:34.531Z,101921.22
2023-09-27T07:27:03.607Z,101889.63
2023-09-27T07:29:34.886Z,101926.72
2023-09-27T07:32:05.910Z,101920.97
2023-09-27T07:34:38.902Z,101920.16
2023-09-27T07:37:09.812Z,101912.75
2023-09-27T07:39:41.631Z,101910.84
2023-09-27T07:42:12.522Z,101928.13
2023-09-27T07:44:41.842Z,101903.03
2023-09-27T07:47:12.938Z,101921.31
2023-09-27T07:49:42.350Z,101928.59
2023-09-27T07:52:12.264Z,101923.59
2023-09-27T07:54:42.071Z,101933.75
2023-09-27T07:57:12.529Z,101924.56
2023-09-27T07:59:41.845Z,101918.72
2023-09-27T08:02:12.757Z,101919.16
2023-09-27T08:04:44.692Z,101921.66
2023-09-27T08:07:14.490Z,101902.91
2023-09-27T08:09:43.682Z,101914.34
2023-09-27T08:12:14.522Z,101918.28
2023-09-27T08:14:44.180Z,101910.38
2023-09-27T08:17:15.435Z,101936.06
2023-09-27T08:19:44.804Z,101915.53
2023-09-27T08:22:13.997Z,101618.34
2023-09-27T08:24:43.657Z,101943.88
2023-09-27T08:27:12.945Z,101914.53
2023-09-27T08:29:42.506Z,101918.97
2023-09-27T08:32:15.099Z,101915.38
2023-09-27T08:34:44.670Z,101919.97
2023-09-27T08:37:14.421Z,101924.97
2023-09-27T08:39:44.416Z,101920.81
2023-09-27T08:42:14.892Z,101919.88
2023-09-27T08:44:45.644Z,101921.63
2023-09-27T08:47:16.577Z,101892.13
2023-09-27T08:49:50.686Z,101870.72
2023-09-27T08:52:23.276Z,101863.78
2023-09-27T08:54:54.228Z,101878.19
2023-09-27T08:57:25.348Z,101911.56
2023-09-27T08:59:55.304Z,101903.69
2023-09-27T09:02:27.029Z,101871.63
2023-09-27T09:04:57.022Z,101851.06
2023-09-27T09:07:26.967Z,101889.66
2023-09-27T09:09:59.215Z,101899.69
2023-09-27T09:12:28.789Z,101915.56
2023-09-27T09:15:00.838Z,101895.19
2023-09-27T09:17:37.602Z,101901.19
2023-09-27T09:20:17.090Z,101889.50
2023-09-27T09:22:47.334Z,101892.53
2023-09-27T09:25:20.515Z,101880.31
2023-09-27T09:28:05.119Z,101892.47
2023-09-27T09:30:39.196Z,101905.00
2023-09-27T09:33:18.673Z,101761.41
2023-09-27T09:35:49.200Z,101866.41
2023-09-27T09:38:27.641Z,101896.97
2023-09-27T09:40:58.379Z,101877.72
2023-09-27T09:43:35.612Z,101876.66
2023-09-27T09:46:07.813Z,101840.63
2023-09-27T09:48:41.691Z,101868.56
2023-09-27T09:51:12.856Z,101845.28
2023-09-27T09:53:44.163Z,101869.22
2023-09-27T09:58:50.188Z,101879.34
2023-09-27T10:01:23.413Z,101823.00
2023-09-27T10:03:54.736Z,101876.47
2023-09-27T10:06:40.995Z,101872.66
2023-09-27T10:09:16.545Z,101866.19
2023-09-27T10:11:49.101Z,101874.09
2023-09-27T10:14:20.462Z,101852.56
2023-09-27T10:16:51.585Z,101827.22
2023-09-27T10:19:31.106Z,101799.72
2023-09-27T10:22:08.684Z,101796.03
2023-09-27T10:24:43.760Z,101802.59
2023-09-27T10:27:13.398Z,101776.19
2023-09-27T10:30:01.825Z,101781.75
2023-09-27T10:32:32.335Z,101780.84
2023-09-27T10:35:19.004Z,101780.97
2023-09-27T10:38:05.724Z,101778.81
2023-09-27T10:40:45.284Z,101723.97
2023-09-27T10:43:42.131Z,101757.97
2023-09-27T10:46:11.863Z,101753.34
2023-09-27T10:48:43.896Z,101760.16
2023-09-27T10:51:14.922Z,101741.22
2023-09-27T10:53:44.846Z,101772.94
2023-09-27T10:56:15.864Z,101777.66
2023-09-27T10:58:47.078Z,101772.03
2023-09-27T11:01:22.149Z,101740.47
2023-09-27T11:04:00.361Z,101772.28
2023-09-27T11:06:32.701Z,101772.28
2023-09-27T11:09:08.837Z,101764.81
2023-09-27T11:11:38.160Z,101755.84
2023-09-27T11:14:07.790Z,101756.34
2023-09-27T11:16:37.210Z,101745.59
2023-09-27T11:19:06.779Z,101733.78
2023-09-27T11:21:38.542Z,101739.09
2023-09-27T11:24:11.713Z,101736.72
2023-09-27T11:26:45.426Z,101708.00
2023-09-27T11:29:14.983Z,101720.28
2023-09-27T11:31:44.461Z,101691.31
2023-09-27T11:34:16.143Z,101690.91
2023-09-27T11:36:48.240Z,101715.66
2023-09-27T11:39:22.702Z,101715.09
2023-09-27T11:41:52.433Z,101715.34
2023-09-27T11:44:24.781Z,101725.59
2023-09-27T11:47:06.129Z,101692.47
2023-09-27T11:49:35.851Z,101699.34
2023-09-27T11:52:11.687Z,101698.38
2023-09-27T11:54:43.463Z,101697.44
2023-09-27T11:57:12.903Z,101686.91
2023-09-27T11:59:42.065Z,101683.25
2023-09-27T12:02:24.386Z,101661.06
2023-09-27T12:04:57.010Z,101670.94
2023-09-27T12:07:28.646Z,101660.09
2023-09-27T12:09:58.448Z,101650.09
2023-09-27T12:12:28.670Z,101638.84
2023-09-27T12:14:58.092Z,101646.28
2023-09-27T12:17:27.411Z,101637.09
2023-09-27T12:19:56.934Z,101525.25
2023-09-27T12:22:29.806Z,101623.31
2023-09-27T12:24:59.010Z,101610.94
2023-09-27T12:27:29.216Z,101610.44
2023-09-27T12:29:59.185Z,101611.31
2023-09-27T12:32:28.919Z,101488.56
2023-09-27T12:34:58.810Z,101599.78
2023-09-27T12:37:32.132Z,101595.38
2023-09-27T12:40:01.829Z,101582.84
2023-09-27T12:42:34.182Z,101546.13
2023-09-27T12:45:04.471Z,101567.22
2023-09-27T12:47:34.241Z,101565.59
2023-09-27T12:50:05.012Z,101530.31
2023-09-27T12:52:35.977Z,101562.88
2023-09-27T12:55:06.540Z,101554.47
2023-09-27T12:57:36.284Z,101538.00
2023-09-27T13:00:10.225Z,101552.53
2023-09-27T13:02:39.611Z,101546.34
2023-09-27T13:05:11.789Z,101542.56
2023-09-27T13:07:44.802Z,101529.84
2023-09-27T13:10:16.596Z,101533.63
2023-09-27T13:12:46.918Z,101534.63
2023-09-27T13:15:16.548Z,101408.00
2023-09-27T13:17:46.348Z,101540.56
2023-09-27T13:20:16.805Z,101546.00
2023-09-27T13:22:49.376Z,101546.69
2023-09-27T13:25:18.661Z,101550.31
2023-09-27T13:27:48.455Z,101548.22
2023-09-27T13:30:32.988Z,101560.22
2023-09-27T13:33:06.235Z,101555.19
2023-09-27T13:35:37.164Z,101546.81
2023-09-27T13:38:09.040Z,101546.56
2023-09-27T13:40:38.121Z,101544.38
2023-09-27T13:43:07.959Z,101513.72
2023-09-27T13:45:37.815Z,101533.28
2023-09-27T13:48:08.359Z,101539.06
2023-09-27T13:50:38.400Z,101530.97
2023-09-27T13:53:12.116Z,101532.16
2023-09-27T13:55:42.260Z,101499.38
2023-09-27T13:58:14.121Z,101532.66
2023-09-27T14:00:44.022Z,101516.41
2023-09-27T14:03:14.818Z,101482.09
2023-09-27T14:05:44.717Z,101526.03
2023-09-27T14:08:15.420Z,101520.25
2023-09-27T14:10:44.818Z,101519.41
2023-09-27T14:13:14.405Z,101509.97
2023-09-27T14:15:44.068Z,101474.63
2023-09-27T14:18:13.490Z,101491.03
2023-09-27T14:20:43.508Z,101493.50
2023-09-27T14:23:12.622Z,101490.00
2023-09-27T14:25:44.797Z,101504.47
2023-09-27T14:28:14.052Z,101492.88
2023-09-27T14:30:43.781Z,101489.25
2023-09-27T14:33:13.791Z,101316.59
2023-09-27T14:38:19.427Z,101475.38
2023-09-27T14:40:50.997Z,101470.78
2023-09-27T14:43:20.662Z,101465.41
2023-09-27T14:45:51.204Z,101462.16
2023-09-27T14:48:20.505Z,101460.09
2023-09-27T14:50:50.565Z,101434.94
2023-09-27T14:53:20.383Z,101455.13
2023-09-27T14:55:51.179Z,101424.25
2023-09-27T14:58:21.730Z,101435.34
2023-09-27T15:00:53.846Z,101425.94
2023-09-27T15:03:23.972Z,101424.81
2023-09-27T15:05:53.606Z,101419.28
2023-09-27T15:08:23.265Z,101400.53
2023-09-27T15:10:53.859Z,101382.38
2023-09-27T15:13:23.840Z,101404.47
2023-09-27T15:15:53.640Z,101421.88
2023-09-27T15:18:25.800Z,101417.47
2023-09-27T15:20:56.207Z,101444.25
2023-09-27T15:23:26.832Z,101412.13
2023-09-27T15:25:59.850Z,101373.97
2023-09-27T15:28:29.010Z,101403.22
2023-09-27T15:30:58.662Z,101396.63
2023-09-27T15:33:28.070Z,101387.00
2023-09-27T15:35:58.516Z,101391.44
2023-09-27T15:38:30.578Z,101389.34
2023-09-27T15:41:01.680Z,101386.28
2023-09-27T15:43:33.344Z,101376.41
2023-09-27T15:46:06.071Z,101369.72
2023-09-27T15:48:38.387Z,101330.25
2023-09-27T15:51:08.797Z,101366.09
2023-09-27T15:53:39.306Z,101360.28
2023-09-27T15:56:11.780Z,101359.34
2023-09-27T15:58:41.206Z,101358.72
2023-09-27T16:01:10.763Z,101358.56
2023-09-27T16:03:39.851Z,101355.75
2023-09-27T16:06:10.635Z,101369.16
2023-09-27T16:08:39.662Z,101374.97
2023-09-27T16:11:10.746Z,101336.69
2023-09-27T16:13:40.148Z,101374.03
2023-09-27T16:16:09.301Z,101371.81
2023-09-27T16:18:38.624Z,101372.66
2023-09-27T16:21:08.269Z,101380.19
2023-09-27T16:23:37.414Z,101360.78
2023-09-27T16:26:10.134Z,101360.00
2023-09-27T16:28:40.365Z,101369.38
2023-09-27T16:31:12.275Z,101369.66
2023-09-27T16:33:43.770Z,101376.44
2023-09-27T16:36:18.568Z,101375.66
2023-09-27T16:38:48.164Z,101355.19
2023-09-27T16:41:21.741Z,101372.56
2023-09-27T16:43:51.282Z,101368.91
2023-09-27T16:46:25.230Z,101372.91
2023-09-27T16:48:54.920Z,101369.03
2023-09-27T16:51:24.610Z,101357.63
2023-09-27T16:53:54.079Z,101320.88
2023-09-27T16:56:24.682Z,101336.59
2023-09-27T16:58:54.037Z,101344.56
2023-09-27T17:01:24.443Z,101328.50
2023-09-27T17:03:54.294Z,101339.63
2023-09-27T17:06:23.833Z,101337.78
2023-09-27T17:08:58.125Z,101327.91
2023-09-27T17:11:28.840Z,101322.28
2023-09-27T17:13:58.707Z,101309.81
2023-09-27T17:16:28.597Z,101326.53
2023-09-27T17:18:58.172Z,101266.88
2023-09-27T17:21:27.349Z,101324.63
2023-09-27T17:23:56.853Z,101319.63
2023-09-27T17:26:26.360Z,101315.34
2023-09-27T17:28:57.074Z,101305.97
2023-09-27T17:31:26.745Z,101305.19
2023-09-27T17:33:56.656Z,101297.88
2023-09-27T17:36:26.173Z,101282.88
2023-09-27T17:38:55.836Z,101294.59
2023-09-27T17:41:25.678Z,101285.66
2023-09-27T17:43:56.542Z,101298.72
2023-09-27T17:46:26.637Z,101299.00
2023-09-27T17:48:56.311Z,101285.34
2023-09-27T17:51:25.758Z,101300.34
2023-09-27T17:53:55.803Z,101276.59
2023-09-27T17:56:25.577Z,101311.16
2023-09-27T17:58:56.474Z,101288.31
2023-09-27T18:01:27.196Z,101311.50
2023-09-27T18:03:59.074Z,101287.34
2023-09-27T18:06:28.727Z,101275.22
2023-09-27T18:08:58.177Z,101288.94
2023-09-27T18:11:27.562Z,101288.69
2023-09-27T18:13:58.159Z,101287.28
2023-09-27T18:16:27.837Z,101265.66
2023-09-27T18:18:57.629Z,101285.84
2023-09-27T18:21:28.648Z,101283.91
2023-09-27T18:23:58.109Z,101284.38
2023-09-27T18:26:27.767Z,101286.06
2023-09-27T18:28:58.033Z,101269.97
2023-09-27T18:31:28.262Z,101264.69
2023-09-27T18:33:57.907Z,101273.56
2023-09-27T18:36:27.651Z,101272.16
2023-09-27T18:38:57.245Z,101256.16
2023-09-27T18:41:29.111Z,101267.19
2023-09-27T18:43:59.643Z,101254.38
2023-09-27T18:46:29.464Z,101255.44
2023-09-27T18:48:58.422Z,101256.63
2023-09-27T18:51:27.688Z,101256.78
2023-09-27T18:53:57.131Z,101248.97
2023-09-27T18:56:26.157Z,101236.84
2023-09-27T18:59:00.073Z,101252.59
2023-09-27T19:01:33.507Z,101256.03
2023-09-27T19:04:03.534Z,101244.41
2023-09-27T19:06:32.952Z,101238.41
2023-09-27T19:09:03.638Z,101245.59
2023-09-27T19:11:34.586Z,101251.00
2023-09-27T19:14:05.858Z,101229.50
2023-09-27T19:16:38.763Z,101208.84
2023-09-27T19:19:09.645Z,101206.81
2023-09-27T19:21:40.742Z,101228.44
2023-09-27T19:24:11.019Z,101221.47
2023-09-27T19:26:43.769Z,101197.59
2023-09-27T19:29:13.816Z,101188.69
2023-09-27T19:31:44.665Z,101185.19
2023-09-27T19:34:16.384Z,101193.25
2023-09-27T19:36:45.912Z,101153.06
2023-09-27T19:39:16.206Z,101206.56
2023-09-27T19:41:45.543Z,101204.31
2023-09-27T19:44:16.799Z,101185.81
2023-09-27T19:46:49.278Z,101180.78
2023-09-27T19:49:18.879Z,101175.84
2023-09-27T19:51:48.374Z,101175.97
2023-09-27T19:54:18.041Z,101135.16
2023-09-27T19:56:47.870Z,101130.97
2023-09-27T19:59:17.436Z,101126.38
2023-09-27T20:01:48.650Z,101108.41
2023-09-27T20:04:18.196Z,101137.44
2023-09-27T20:06:47.285Z,101161.22
2023-09-27T20:09:16.698Z,101154.72
2023-09-27T20:11:48.202Z,101122.94
2023-09-27T20:14:20.501Z,101140.81
2023-09-27T20:16:51.802Z,101140.81
2023-09-27T20:19:21.593Z,101147.03
2023-09-27T20:21:56.672Z,101121.34
2023-09-27T20:24:28.051Z,101111.97
2023-09-27T20:26:57.800Z,101099.03
2023-09-27T20:29:29.143Z,100981.09
2023-09-27T20:32:00.612Z,101127.47
2023-09-27T20:34:34.050Z,101118.00
2023-09-27T20:37:04.123Z,101144.63
2023-09-27T20:39:33.518Z,101138.03
2023-09-27T20:42:04.638Z,101122.72
2023-09-27T20:44:34.896Z,101132.75
2023-09-27T20:47:06.783Z,101111.25
2023-09-27T20:49:36.708Z,101120.88
2023-09-27T20:52:10.360Z,101111.75
2023-09-27T20:54:41.218Z,101110.28
2023-09-27T20:57:11.356Z,101112.66
2023-09-27T20:59:41.177Z,101106.22
2023-09-27T21:02:12.516Z,101073.56
2023-09-27T21:04:42.095Z,101088.53
2023-09-27T21:07:11.572Z,101088.91
2023-09-27T21:09:42.701Z,101087.94
2023-09-27T21:12:12.038Z,101074.50
2023-09-27T21:14:41.263Z,101074.75
2023-09-27T21:17:11.742Z,101054.97
2023-09-27T21:19:41.216Z,101053.03
2023-09-27T21:22:12.643Z,100987.03
2023-09-27T21:24:41.798Z,101042.94
2023-09-27T21:27:12.420Z,101045.47
2023-09-27T21:29:41.404Z,101043.81
2023-09-27T21:32:14.169Z,101051.84
2023-09-27T21:34:48.022Z,101066.44
2023-09-27T21:37:18.464Z,101095.28
2023-09-27T21:39:47.704Z,101111.13
2023-09-27T21:42:17.889Z,101114.50
2023-09-27T21:44:47.525Z,101123.03
2023-09-27T21:47:18.134Z,101106.44
2023-09-27T21:49:47.289Z,101103.59
2023-09-27T21:52:16.408Z,101115.22
2023-09-27T21:54:46.242Z,101112.69
2023-09-27T21:57:16.040Z,101114.19
2023-09-27T21:59:45.268Z,101110.69
2023-09-27T22:02:15.164Z,101110.78
2023-09-27T22:04:46.507Z,100937.84
2023-09-27T22:07:16.638Z,101087.63
2023-09-27T22:09:46.750Z,101089.47
2023-09-27T22:12:22.971Z,101110.00
2023-09-27T22:14:53.656Z,100962.38
2023-09-27T22:17:25.118Z,101106.09
2023-09-27T22:19:57.596Z,101113.91
2023-09-27T22:22:28.834Z,101110.81
2023-09-27T22:24:59.190Z,101111.78
2023-09-27T22:27:29.899Z,101107.22
2023-09-27T22:30:01.261Z,101099.88
2023-09-27T22:32:32.389Z,101108.66
2023-09-27T22:35:10.427Z,101100.03
2023-09-27T22:37:41.457Z,101087.09
2023-09-27T22:40:19.760Z,101092.81
2023-09-27T22:42:51.004Z,101085.97
2023-09-27T22:45:31.859Z,101078.66
2023-09-27T22:48:02.851Z,101088.97
2023-09-27T22:50:46.063Z,101085.97
2023-09-27T22:53:16.743Z,101077.47
2023-09-27T22:55:51.875Z,101078.09
2023-09-27T22:58:24.731Z,101083.50
2023-09-27T23:00:58.718Z,101078.56
2023-09-27T23:03:31.170Z,101068.84
2023-09-27T23:06:04.564Z,101090.47
2023-09-27T23:08:39.361Z,101097.41
2023-09-27T23:11:10.498Z,101080.25
2023-09-27T23:13:50.143Z,101082.31
2023-09-27T23:16:36.820Z,101100.63
2023-09-27T23:19:07.297Z,101099.75
2023-09-27T23:21:43.309Z,101065.63
2023-09-27T23:24:28.085Z,101099.53
2023-09-27T23:27:08.418Z,101096.56
2023-09-27T23:29:37.990Z,101099.53
2023-09-27T23:32:19.056Z,101102.50
2023-09-27T23:34:49.730Z,101117.97
2023-09-27T23:37:32.279Z,101112.00
2023-09-27T23:40:02.184Z,101097.09
2023-09-27T23:42:36.509Z,101101.00
2023-09-27T23:45:10.737Z,101106.03
2023-09-27T23:47:45.348Z,101109.09
2023-09-27T23:50:17.823Z,101109.19
2023-09-27T23:52:50.059Z,101105.63
2023-09-27T23:55:26.785Z,101071.53
2023-09-27T23:58:04.587Z,101114.00
